Main page
METAR-TAF:

METAR-TAF

Airports :

Goodland Municipal Airport (Renner Field)

Goodland, Kansas, United States

latitude: 39-22-03N, longitude: 101-41-35W, elevation: 3654 ft

Current weather observation

The report was made 54 minutes ago, at 14:53 UTC
Wind 18 mph from the Northeast
Temperature 68°F
Humidity 56%
Pressure 30.19 in. Hg
Visibility: 10 miles
Clear sky

METAR: KGLD 281453Z AUTO 05016KT 10SM CLR 20/11 A3019 RMK AO2 SLP195 T02000111 51017

Time: 09:47 (15:47 UTC)

Forecast

The report was made 13 minutes ago, at 15:34 UTC
Forecast valid from 28 at 16 UTC to 29 at 12 UTC
Wind 14 mph from the Northeast
Visibility: 6 miles
Scattered clouds at a height of 12000 ft
From 29 at 0300 UTC
Wind 7 mph from variable directions
Visibility: 6 miles
Scattered clouds at a height of 10000 ft

TAF: KGLD 281534Z 2816/2912 05012KT P6SM SCT120 FM290300 VRB06KT P6SM SCT100

Weather observations and forecasts of more than 4000 airports (METAR and TAF reports).

The available stations are represented by yellow and red dots on the map.

Hover mouse over dot to see the name of the station.

Then click to see weather observations and forecasts.

To change the map : click on the green buttons with a black cross to zoom in, on the green button with a dash to zoom out, or on the green arrows for adjacent maps.


METAR-TAF: